createdAt,value
2023-04-08T00:01:32.723Z,2.97
2023-04-08T00:04:00.916Z,2.80
2023-04-08T00:06:29.045Z,2.67
2023-04-08T00:08:56.986Z,2.97
2023-04-08T00:11:24.869Z,2.67
2023-04-08T00:13:52.803Z,2.53
2023-04-08T00:16:22.657Z,2.27
2023-04-08T00:18:51.315Z,2.57
2023-04-08T00:21:20.907Z,2.70
2023-04-08T00:23:49.118Z,2.30
2023-04-08T00:26:17.145Z,2.37
2023-04-08T00:28:45.192Z,2.50
2023-04-08T00:31:13.176Z,2.13
2023-04-08T00:33:42.548Z,2.17
2023-04-08T00:36:10.592Z,2.30
2023-04-08T00:38:38.623Z,2.30
2023-04-08T00:41:06.582Z,2.13
2023-04-08T00:43:34.639Z,2.97
2023-04-08T00:46:02.632Z,3.10
2023-04-08T00:48:31.486Z,2.97
2023-04-08T00:51:00.887Z,3.00
2023-04-08T00:53:28.819Z,2.77
2023-04-08T00:55:56.790Z,2.27
2023-04-08T00:58:24.827Z,2.57
2023-04-08T01:01:01.432Z,3.40
2023-04-08T01:03:43.400Z,3.37
2023-04-08T01:06:23.040Z,3.70
2023-04-08T01:08:53.442Z,4.40
2023-04-08T01:11:22.526Z,3.43
2023-04-08T01:13:52.534Z,3.67
2023-04-08T01:16:21.735Z,4.37
2023-04-08T01:18:52.093Z,4.43
2023-04-08T01:21:23.094Z,4.37
2023-04-08T01:24:00.703Z,5.17
2023-04-08T01:26:30.702Z,5.17
2023-04-08T01:29:01.819Z,4.90
2023-04-08T01:31:30.626Z,5.20
2023-04-08T01:34:00.818Z,4.57
2023-04-08T01:36:30.113Z,6.27
2023-04-08T01:38:59.843Z,5.30
2023-04-08T01:41:30.267Z,5.97
2023-04-08T01:43:59.271Z,6.10
2023-04-08T01:46:28.401Z,6.10
2023-04-08T01:48:58.570Z,6.67
2023-04-08T01:51:27.782Z,6.03
2023-04-08T01:53:55.814Z,6.33
2023-04-08T01:56:24.762Z,5.57
2023-04-08T01:58:56.631Z,6.70
2023-04-08T02:01:27.017Z,6.23
2023-04-08T02:03:57.610Z,8.20
2023-04-08T02:06:27.704Z,6.67
2023-04-08T02:08:55.762Z,8.47
2023-04-08T02:11:25.095Z,7.50
2023-04-08T02:13:55.091Z,7.97
2023-04-08T02:16:25.633Z,7.47
2023-04-08T02:18:59.404Z,6.13
2023-04-08T02:21:33.489Z,8.63
2023-04-08T02:24:05.827Z,7.17
2023-04-08T02:26:37.227Z,8.30
2023-04-08T02:29:06.964Z,8.10
2023-04-08T02:31:35.829Z,9.10
2023-04-08T02:34:05.310Z,7.43
2023-04-08T02:36:34.071Z,7.80
2023-04-08T02:39:02.037Z,7.70
2023-04-08T02:41:30.802Z,8.07
2023-04-08T02:43:58.958Z,9.43
2023-04-08T02:46:28.226Z,10.53
2023-04-08T02:48:56.197Z,9.00
2023-04-08T02:51:24.151Z,9.70
2023-04-08T02:53:52.031Z,9.13
2023-04-08T02:56:19.902Z,10.67
2023-04-08T02:58:47.956Z,9.90
2023-04-08T03:01:16.445Z,9.10
2023-04-08T03:03:45.903Z,8.60
2023-04-08T03:06:13.895Z,8.33
2023-04-08T03:08:41.779Z,9.17
2023-04-08T03:11:09.691Z,10.47
2023-04-08T03:13:38.014Z,9.40
2023-04-08T03:16:06.622Z,10.60
2023-04-08T03:18:35.316Z,9.67
2023-04-08T03:21:04.673Z,9.17
2023-04-08T03:23:32.566Z,9.97
2023-04-08T03:26:00.373Z,8.60
2023-04-08T03:28:28.269Z,10.93
2023-04-08T03:30:56.221Z,8.97
2023-04-08T03:33:24.030Z,10.37
2023-04-08T03:35:51.899Z,10.63
2023-04-08T03:38:21.176Z,10.13
2023-04-08T03:40:49.048Z,10.83
2023-04-08T03:43:16.873Z,10.70
2023-04-08T03:45:44.770Z,10.23
2023-04-08T03:48:12.593Z,10.20
2023-04-08T03:50:40.406Z,9.80
2023-04-08T03:53:11.178Z,11.23
2023-04-08T03:55:40.743Z,11.23
2023-04-08T03:58:08.685Z,10.77
2023-04-08T04:00:37.176Z,10.03
2023-04-08T04:03:05.216Z,10.67
2023-04-08T04:05:33.276Z,10.97
2023-04-08T04:08:01.198Z,10.13
2023-04-08T04:10:29.055Z,12.93
2023-04-08T04:12:58.339Z,9.87
2023-04-08T04:15:26.280Z,10.70
2023-04-08T04:17:54.521Z,9.83
2023-04-08T04:20:22.727Z,10.23
2023-04-08T04:22:50.506Z,9.73
2023-04-08T04:25:18.390Z,8.73
2023-04-08T04:27:46.201Z,11.17
2023-04-08T04:30:16.078Z,11.37
2023-04-08T04:32:44.173Z,8.57
2023-04-08T04:35:12.767Z,8.77
2023-04-08T04:37:40.684Z,9.57
2023-04-08T04:40:09.351Z,10.17
2023-04-08T04:42:37.195Z,10.40
2023-04-08T04:45:05.542Z,10.33
2023-04-08T04:47:34.734Z,9.87
2023-04-08T04:50:02.710Z,10.60
2023-04-08T04:52:30.796Z,10.67
2023-04-08T04:54:58.640Z,11.10
2023-04-08T04:57:26.613Z,10.90
2023-04-08T04:59:54.450Z,8.83
2023-04-08T05:02:22.340Z,9.60
2023-04-08T05:04:53.633Z,9.50
2023-04-08T05:07:21.781Z,12.37
2023-04-08T05:09:49.676Z,11.10
2023-04-08T05:12:17.532Z,11.10
2023-04-08T05:14:46.335Z,10.77
2023-04-08T05:17:14.204Z,11.27
2023-04-08T05:19:42.064Z,11.47
2023-04-08T05:22:11.311Z,10.33
2023-04-08T05:24:39.222Z,9.50
2023-04-08T05:27:07.077Z,11.03
2023-04-08T05:29:35.049Z,10.63
2023-04-08T05:32:02.941Z,10.40
2023-04-08T05:34:33.072Z,9.40
2023-04-08T05:37:01.207Z,11.80
2023-04-08T05:39:30.578Z,10.60
2023-04-08T05:41:58.388Z,10.73
2023-04-08T05:44:26.358Z,10.87
2023-04-08T05:46:55.325Z,12.00
2023-04-08T05:49:23.206Z,11.23
2023-04-08T05:51:51.385Z,11.67
2023-04-08T05:54:19.203Z,12.17
2023-04-08T05:56:48.974Z,9.97
2023-04-08T05:59:16.884Z,12.80
2023-04-08T06:01:44.875Z,13.10
2023-04-08T06:04:12.857Z,11.00
2023-04-08T06:06:41.277Z,11.67
2023-04-08T06:09:09.997Z,12.23
2023-04-08T06:11:37.934Z,10.93
2023-04-08T06:14:07.060Z,11.90
2023-04-08T06:16:35.168Z,10.47
2023-04-08T06:19:03.080Z,13.07
2023-04-08T06:21:30.980Z,9.93
2023-04-08T06:23:58.896Z,14.27
2023-04-08T06:26:27.811Z,12.87
2023-04-08T06:28:55.666Z,10.13
2023-04-08T06:31:25.197Z,11.57
2023-04-08T06:33:53.284Z,11.50
2023-04-08T06:36:21.187Z,10.43
2023-04-08T06:38:49.452Z,11.17
2023-04-08T06:41:17.700Z,12.13
2023-04-08T06:43:45.813Z,11.43
2023-04-08T06:46:13.918Z,13.17
2023-04-08T06:48:43.269Z,11.60
2023-04-08T06:51:11.599Z,10.67
2023-04-08T06:53:39.678Z,11.37
2023-04-08T06:56:07.940Z,13.30
2023-04-08T06:58:35.975Z,13.20
2023-04-08T07:01:04.030Z,14.13
2023-04-08T07:03:32.393Z,13.00
2023-04-08T07:06:02.217Z,12.93
2023-04-08T07:08:30.329Z,13.73
2023-04-08T07:11:00.988Z,10.83
2023-04-08T07:13:29.527Z,12.43
2023-04-08T07:15:57.606Z,10.30
2023-04-08T07:18:26.446Z,12.87
2023-04-08T07:20:55.018Z,11.37
2023-04-08T07:23:24.595Z,12.67
2023-04-08T07:25:52.511Z,13.27
2023-04-08T07:28:20.791Z,10.80
2023-04-08T07:30:49.108Z,11.63
2023-04-08T07:33:17.348Z,11.07
2023-04-08T07:35:45.539Z,11.70
2023-04-08T07:38:13.512Z,11.73
2023-04-08T07:40:42.875Z,13.73
2023-04-08T07:43:10.962Z,12.40
2023-04-08T07:45:38.999Z,13.40
2023-04-08T07:48:07.557Z,12.87
2023-04-08T07:51:09.330Z,12.97
2023-04-08T07:53:27.910Z,11.27
2023-04-08T07:55:57.313Z,11.63
2023-04-08T07:58:25.701Z,11.90
2023-04-08T08:04:34.936Z,11.00
2023-04-08T08:07:03.052Z,12.07
2023-04-08T08:09:32.177Z,12.03
2023-04-08T08:12:01.671Z,11.47
2023-04-08T08:14:29.611Z,11.77
2023-04-08T08:16:58.007Z,11.60
2023-04-08T08:19:26.088Z,12.00
2023-04-08T08:21:54.191Z,11.47
2023-04-08T08:24:22.228Z,11.37
2023-04-08T08:26:50.187Z,11.87
2023-04-08T08:29:19.523Z,12.87
2023-04-08T08:31:48.579Z,12.13
2023-04-08T08:34:16.854Z,13.97
2023-04-08T08:36:44.902Z,13.27
2023-04-08T08:39:12.879Z,12.77
2023-04-08T08:41:42.313Z,11.37
2023-04-08T08:44:11.298Z,11.83
2023-04-08T08:46:44.753Z,13.30
2023-04-08T08:49:13.545Z,11.87
2023-04-08T08:51:42.020Z,13.17
2023-04-08T08:54:10.058Z,12.90
2023-04-08T08:56:38.107Z,12.40
2023-04-08T08:59:06.267Z,10.80
2023-04-08T09:01:35.922Z,12.43
2023-04-08T09:04:14.103Z,10.27
2023-04-08T09:06:42.501Z,12.37
2023-04-08T09:09:13.397Z,11.10
2023-04-08T09:11:43.609Z,11.60
2023-04-08T09:14:22.121Z,12.23
2023-04-08T09:16:50.767Z,12.23
2023-04-08T09:19:20.384Z,11.53
2023-04-08T09:22:06.446Z,11.97
2023-04-08T09:24:34.706Z,12.47
2023-04-08T09:27:02.710Z,11.70
2023-04-08T09:29:34.617Z,10.80
2023-04-08T09:32:04.052Z,11.33
2023-04-08T09:34:34.494Z,11.17
2023-04-08T09:37:03.042Z,11.07
2023-04-08T09:39:32.394Z,12.07
2023-04-08T09:42:03.001Z,10.67
2023-04-08T09:44:33.996Z,12.10
2023-04-08T09:47:10.818Z,12.57
2023-04-08T09:49:47.772Z,11.33
2023-04-08T09:52:22.144Z,10.50
2023-04-08T09:54:55.854Z,11.83
2023-04-08T09:57:32.040Z,12.60
2023-04-08T10:00:09.782Z,11.43
2023-04-08T10:02:47.115Z,11.20
2023-04-08T10:05:18.533Z,13.17
2023-04-08T10:07:46.845Z,11.90
2023-04-08T10:10:15.311Z,11.70
2023-04-08T10:12:43.816Z,10.43
2023-04-08T10:15:25.835Z,10.57
2023-04-08T10:17:54.350Z,11.03
2023-04-08T10:20:46.103Z,10.53
2023-04-08T10:23:14.940Z,11.33
2023-04-08T10:25:44.863Z,11.00
2023-04-08T10:28:26.589Z,10.87
2023-04-08T10:30:55.532Z,9.00
2023-04-08T10:33:25.945Z,9.77
2023-04-08T10:36:03.056Z,10.00
2023-04-08T10:38:31.504Z,9.70
2023-04-08T10:40:59.496Z,9.07
2023-04-08T10:43:27.850Z,10.43
2023-04-08T10:45:55.875Z,10.17
2023-04-08T10:48:25.655Z,11.00
2023-04-08T10:50:55.367Z,9.70
2023-04-08T10:53:32.318Z,9.60
2023-04-08T10:56:07.570Z,9.70
2023-04-08T10:58:36.529Z,8.83
2023-04-08T11:01:06.815Z,9.20
2023-04-08T11:03:36.083Z,7.33
2023-04-08T11:06:05.131Z,7.10
2023-04-08T11:08:35.016Z,7.33
2023-04-08T11:11:04.174Z,7.07
2023-04-08T11:13:32.886Z,8.17
2023-04-08T11:16:03.370Z,10.67
2023-04-08T11:18:32.477Z,8.80
2023-04-08T11:21:01.794Z,7.20
2023-04-08T11:23:30.013Z,6.43
2023-04-08T11:25:59.860Z,7.00
2023-04-08T11:28:29.285Z,7.23
2023-04-08T11:30:58.338Z,7.07
2023-04-08T11:33:27.376Z,6.93
2023-04-08T11:35:55.522Z,7.43
2023-04-08T11:38:24.622Z,7.53
2023-04-08T11:40:56.329Z,7.37
2023-04-08T11:43:27.358Z,8.27
2023-04-08T11:45:55.392Z,7.77
2023-04-08T11:48:23.862Z,8.23
2023-04-08T11:51:04.861Z,7.37
2023-04-08T11:53:33.192Z,8.07
2023-04-08T11:56:18.475Z,7.37
2023-04-08T11:58:48.151Z,8.23
2023-04-08T12:01:16.371Z,7.77
2023-04-08T12:03:56.642Z,6.93
2023-04-08T12:06:27.177Z,7.33
2023-04-08T12:08:56.188Z,7.37
2023-04-08T12:11:24.625Z,7.43
2023-04-08T12:13:54.261Z,7.53
2023-04-08T12:16:22.720Z,7.23
2023-04-08T12:18:51.070Z,7.00
2023-04-08T12:21:19.095Z,7.47
2023-04-08T12:23:47.165Z,6.90
2023-04-08T12:26:15.163Z,7.07
2023-04-08T12:28:43.066Z,7.50
2023-04-08T12:31:12.610Z,7.30
2023-04-08T12:33:40.986Z,8.23
2023-04-08T12:36:10.086Z,7.87
2023-04-08T12:38:39.562Z,7.47
2023-04-08T12:41:07.808Z,7.60
2023-04-08T12:43:35.988Z,7.73
2023-04-08T12:46:04.185Z,7.03
2023-04-08T12:48:33.680Z,7.67
2023-04-08T12:51:01.738Z,6.63
2023-04-08T12:53:29.694Z,7.90
2023-04-08T12:55:58.350Z,6.97
2023-04-08T12:58:26.449Z,6.87
2023-04-08T13:00:54.581Z,7.20
2023-04-08T13:03:22.730Z,6.97
2023-04-08T13:05:52.287Z,6.37
2023-04-08T13:08:20.353Z,6.47
2023-04-08T13:10:48.475Z,6.60
2023-04-08T13:13:16.706Z,7.80
2023-04-08T13:15:55.537Z,7.50
2023-04-08T13:18:23.769Z,7.90
2023-04-08T13:20:53.877Z,6.83
2023-04-08T13:23:22.310Z,6.77
2023-04-08T13:25:50.389Z,6.73
2023-04-08T13:28:18.465Z,5.83
2023-04-08T13:30:46.530Z,6.40
2023-04-08T13:33:14.530Z,6.07
2023-04-08T13:35:42.739Z,6.10
2023-04-08T13:38:12.876Z,5.27
2023-04-08T13:40:41.533Z,5.73
2023-04-08T13:43:09.653Z,5.27
2023-04-08T13:45:37.738Z,4.40
2023-04-08T13:48:06.102Z,5.00
2023-04-08T13:50:34.372Z,4.60
2023-04-08T13:53:02.310Z,4.67
2023-04-08T13:55:31.695Z,5.10
2023-04-08T13:57:59.678Z,5.20
2023-04-08T14:00:28.008Z,4.67
2023-04-08T14:02:56.090Z,4.63
2023-04-08T14:05:24.217Z,4.73
2023-04-08T14:07:52.188Z,4.50
2023-04-08T14:10:20.340Z,4.63
2023-04-08T14:12:49.734Z,4.73
2023-04-08T14:15:17.867Z,5.37
2023-04-08T14:17:45.877Z,3.83
2023-04-08T14:20:13.866Z,4.93
2023-04-08T14:22:42.128Z,3.53
2023-04-08T14:25:10.980Z,4.17
2023-04-08T14:27:50.936Z,4.40
2023-04-08T14:30:26.903Z,4.77
2023-04-08T14:32:55.603Z,5.23
2023-04-08T14:35:23.644Z,4.50
2023-04-08T14:37:51.681Z,4.13
2023-04-08T14:40:19.645Z,4.00
2023-04-08T14:42:49.859Z,5.43
2023-04-08T14:45:18.204Z,5.03
2023-04-08T14:47:47.714Z,4.97
2023-04-08T14:50:16.172Z,4.97
2023-04-08T14:52:45.306Z,4.80
2023-04-08T14:55:13.474Z,3.63
2023-04-08T14:57:41.497Z,4.80
2023-04-08T15:00:10.597Z,4.33
2023-04-08T15:02:38.709Z,4.07
2023-04-08T15:05:09.125Z,4.23
2023-04-08T15:07:37.386Z,4.83
2023-04-08T15:10:05.725Z,4.43
2023-04-08T15:12:34.091Z,4.10
2023-04-08T15:15:02.154Z,4.37
2023-04-08T15:17:30.133Z,4.70
2023-04-08T15:19:58.685Z,4.50
2023-04-08T15:22:28.138Z,4.97
2023-04-08T15:24:56.252Z,4.40
2023-04-08T15:27:24.210Z,4.97
2023-04-08T15:29:52.455Z,5.70
2023-04-08T15:32:20.468Z,4.87
2023-04-08T15:34:48.464Z,5.80
2023-04-08T15:37:16.486Z,5.20
2023-04-08T15:39:46.115Z,5.17
2023-04-08T15:42:14.169Z,5.00
2023-04-08T15:44:42.194Z,5.10
2023-04-08T15:47:10.348Z,5.27
2023-04-08T15:49:38.647Z,4.73
2023-04-08T15:52:07.077Z,3.87
2023-04-08T15:54:35.416Z,4.07
2023-04-08T15:57:04.992Z,4.10
2023-04-08T15:59:33.266Z,4.63
2023-04-08T16:02:01.477Z,4.87
2023-04-08T16:04:29.836Z,4.17
2023-04-08T16:06:58.088Z,5.00
2023-04-08T16:09:27.285Z,4.23
2023-04-08T16:11:55.358Z,4.73
2023-04-08T16:14:24.677Z,4.93
2023-04-08T16:16:52.759Z,4.80
2023-04-08T16:19:22.216Z,3.80
2023-04-08T16:21:50.412Z,3.87
2023-04-08T16:24:20.763Z,4.07
2023-04-08T16:26:49.008Z,4.47
2023-04-08T16:29:17.192Z,4.40
2023-04-08T16:31:46.634Z,4.50
2023-04-08T16:34:14.808Z,4.90
2023-04-08T16:36:42.854Z,4.13
2023-04-08T16:39:11.138Z,3.73
2023-04-08T16:41:39.499Z,4.33
2023-04-08T16:44:07.934Z,4.30
2023-04-08T16:46:36.277Z,4.30
2023-04-08T16:49:05.936Z,3.60
2023-04-08T16:51:34.393Z,4.30
2023-04-08T16:54:02.435Z,4.30
2023-04-08T16:56:30.566Z,3.90
2023-04-08T16:58:58.604Z,4.13
2023-04-08T17:01:27.149Z,4.67
2023-04-08T17:03:55.500Z,5.83
2023-04-08T17:06:25.503Z,5.80
2023-04-08T17:08:53.815Z,5.50
2023-04-08T17:11:21.983Z,5.73
2023-04-08T17:13:50.345Z,5.80
2023-04-08T17:16:19.375Z,6.07
2023-04-08T17:18:47.531Z,7.03
2023-04-08T17:21:15.738Z,7.03
2023-04-08T17:23:45.255Z,6.50
2023-04-08T17:26:13.690Z,6.70
2023-04-08T17:28:43.173Z,6.67
2023-04-08T17:31:11.674Z,6.43
2023-04-08T17:33:39.738Z,7.33
2023-04-08T17:36:08.300Z,7.80
2023-04-08T17:38:39.745Z,6.37
2023-04-08T17:41:10.177Z,7.90
2023-04-08T17:43:38.597Z,8.27
2023-04-08T17:46:07.190Z,8.10
2023-04-08T17:48:35.817Z,10.67
2023-04-08T17:51:06.212Z,8.37
2023-04-08T17:53:36.401Z,9.63
2023-04-08T17:56:05.887Z,7.43
2023-04-08T17:58:35.488Z,7.87
2023-04-08T18:01:03.729Z,7.87
2023-04-08T18:03:31.841Z,9.03
2023-04-08T18:06:00.066Z,7.67
2023-04-08T18:08:28.271Z,7.63
2023-04-08T18:10:56.517Z,7.57
2023-04-08T18:13:24.555Z,8.57
2023-04-08T18:15:54.155Z,10.67
2023-04-08T18:18:22.141Z,10.77
2023-04-08T18:20:50.276Z,11.10
2023-04-08T18:23:18.370Z,9.87
2023-04-08T18:25:48.068Z,11.17
2023-04-08T18:28:16.452Z,10.30
2023-04-08T18:30:44.900Z,11.07
2023-04-08T18:33:14.367Z,10.30
2023-04-08T18:35:43.335Z,10.60
2023-04-08T18:38:11.345Z,10.67
2023-04-08T18:40:39.467Z,11.13
2023-04-08T18:43:07.504Z,10.93
2023-04-08T18:45:35.569Z,9.20
2023-04-08T18:48:03.721Z,9.40
2023-04-08T18:50:33.285Z,10.67
2023-04-08T18:53:01.584Z,9.07
2023-04-08T18:55:29.549Z,9.30
2023-04-08T18:57:57.842Z,9.60
2023-04-08T19:00:26.212Z,11.30
2023-04-08T19:02:54.427Z,10.10
2023-04-08T19:05:25.819Z,9.67
2023-04-08T19:07:55.311Z,9.23
2023-04-08T19:10:24.455Z,9.73
2023-04-08T19:12:52.537Z,8.40
2023-04-08T19:15:20.851Z,8.80
2023-04-08T19:17:49.020Z,7.60
2023-04-08T19:20:17.333Z,8.30
2023-04-08T19:22:48.004Z,9.37
2023-04-08T19:25:18.059Z,8.03
2023-04-08T19:27:46.456Z,8.17
2023-04-08T19:30:14.951Z,8.13
2023-04-08T19:32:43.274Z,9.50
2023-04-08T19:35:13.886Z,8.30
2023-04-08T19:37:42.143Z,7.90
2023-04-08T19:40:11.347Z,7.90
2023-04-08T19:42:40.732Z,7.83
2023-04-08T19:45:10.896Z,8.07
2023-04-08T19:47:42.396Z,8.00
2023-04-08T19:50:11.412Z,8.47
2023-04-08T19:52:39.722Z,7.50
2023-04-08T19:55:08.471Z,8.37
2023-04-08T19:57:37.162Z,7.97
2023-04-08T20:00:12.837Z,8.33
2023-04-08T20:02:42.053Z,7.63
2023-04-08T20:05:14.680Z,8.03
2023-04-08T20:07:42.695Z,7.57
2023-04-08T20:10:11.125Z,7.83
2023-04-08T20:12:40.805Z,7.97
2023-04-08T20:15:23.783Z,7.27
2023-04-08T20:17:53.648Z,8.37
2023-04-08T20:20:21.824Z,7.37
2023-04-08T20:22:49.726Z,8.27
2023-04-08T20:25:17.833Z,7.83
2023-04-08T20:27:45.982Z,8.90
2023-04-08T20:30:15.763Z,6.87
2023-04-08T20:32:43.826Z,7.17
2023-04-08T20:35:13.380Z,7.03
2023-04-08T20:37:41.566Z,8.27
2023-04-08T20:40:10.826Z,7.73
2023-04-08T20:42:38.656Z,7.67
2023-04-08T20:45:07.797Z,8.13
2023-04-08T20:47:37.542Z,6.67
2023-04-08T20:50:06.225Z,6.87
2023-04-08T20:52:34.406Z,8.33
2023-04-08T20:55:02.414Z,8.13
2023-04-08T20:57:30.406Z,7.30
2023-04-08T20:59:58.285Z,7.47
2023-04-08T21:02:26.349Z,8.37
2023-04-08T21:04:56.266Z,7.27
2023-04-08T21:07:26.556Z,8.53
2023-04-08T21:09:54.539Z,8.57
2023-04-08T21:12:22.658Z,8.10
2023-04-08T21:14:50.909Z,7.93
2023-04-08T21:17:18.936Z,8.23
2023-04-08T21:19:46.950Z,7.53
2023-04-08T21:22:17.625Z,7.27
2023-04-08T21:24:45.758Z,8.13
2023-04-08T21:27:13.687Z,7.70
2023-04-08T21:29:41.585Z,7.97
2023-04-08T21:32:09.635Z,7.73
2023-04-08T21:34:37.481Z,7.97
2023-04-08T21:37:06.204Z,9.00
2023-04-08T21:39:35.545Z,6.67
2023-04-08T21:42:03.384Z,8.07
2023-04-08T21:44:31.353Z,8.27
2023-04-08T21:47:01.564Z,8.27
2023-04-08T21:49:30.617Z,8.07
2023-04-08T21:51:58.475Z,7.73
2023-04-08T21:54:26.476Z,8.37
2023-04-08T21:56:56.740Z,9.63
2023-04-08T21:59:24.863Z,10.43
2023-04-08T22:01:52.865Z,9.00
2023-04-08T22:04:20.942Z,7.10
2023-04-08T22:06:49.538Z,8.30
2023-04-08T22:09:17.693Z,8.53
2023-04-08T22:11:45.627Z,7.97
2023-04-08T22:14:15.432Z,9.03
2023-04-08T22:16:43.409Z,9.07
2023-04-08T22:19:11.669Z,7.30
2023-04-08T22:21:39.663Z,8.03
2023-04-08T22:24:07.762Z,7.97
2023-04-08T22:26:35.811Z,7.17
2023-04-08T22:29:04.836Z,8.03
2023-04-08T22:31:34.120Z,8.23
2023-04-08T22:34:02.154Z,7.10
2023-04-08T22:36:30.218Z,7.70
2023-04-08T22:38:58.160Z,8.50
2023-04-08T22:41:26.199Z,9.40
2023-04-08T22:43:54.114Z,8.27
2023-04-08T22:46:22.126Z,8.27
2023-04-08T22:48:51.740Z,8.03
2023-04-08T22:51:19.844Z,8.07
2023-04-08T22:53:47.673Z,8.57
2023-04-08T22:56:15.727Z,8.87
2023-04-08T22:58:43.727Z,8.73
2023-04-08T23:01:12.899Z,8.10
2023-04-08T23:03:41.705Z,7.80
2023-04-08T23:06:11.552Z,8.03
2023-04-08T23:08:39.775Z,8.57
2023-04-08T23:11:07.972Z,7.57
2023-04-08T23:13:35.945Z,7.47
2023-04-08T23:16:03.987Z,8.87
2023-04-08T23:18:31.980Z,9.10
2023-04-08T23:20:59.911Z,8.60
2023-04-08T23:23:29.360Z,8.27
2023-04-08T23:25:57.327Z,7.93
2023-04-08T23:28:25.456Z,8.17
2023-04-08T23:30:53.533Z,8.20
2023-04-08T23:33:21.515Z,7.83
2023-04-08T23:35:49.437Z,8.27
2023-04-08T23:38:17.356Z,6.47
2023-04-08T23:40:46.633Z,7.77
2023-04-08T23:43:14.691Z,8.83
2023-04-08T23:45:42.810Z,7.50
2023-04-08T23:48:10.744Z,8.73
2023-04-08T23:50:38.689Z,10.80
2023-04-08T23:53:11.994Z,8.33
2023-04-08T23:55:39.947Z,8.50
2023-04-08T23:58:09.333Z,8.53
